De Luce, Arkansas
Current Conditions -  °F | °C
As of 3:35 AM on Sunday 23 Nov 2014 (Local Time) from KSGT Reporting Station
Overcast Overcast  
Wind Chill: 55°   Ceiling: 4900
Heat Index: 55°   Visibility: 9mi
Dew Point: 52°   Wind: 12mph
Humidity: 88%   Direction: 140°SE
Pressure: 29.77"   Gusts: NA
Location:  34.1937°N, 91.3321°W
Report Text: KSGT 230935Z AUTO 14010KT 9SM FEW026 SCT041 OVC049 13/11 A2977 RMK AO1 P0004
Loading
Personal Weather Stations






























Interactive Weather Map New forecast layout! Learn more

10-Day Weather Forecast

Advertisements
Track Severe Weather on mobile